San Juan Enterprise — WDD9563 — position and weather

sailwx.info

Track history (hours):
 
Tides and Currents Weather Stations Pressure Air Temp Water Temp Dewpoint Dewpoint Depression Visibility Wind Speed Wind Dir Waves Ship Positions

San Juan Enterprise

Owner: SAN JUAN MARINE FREIGHT CO LLC, ANACORTES, WA. More information available from US FCC via Universal Licensing System and Coast Guard Vessel Documentation Center.

Last reported at 2016-May-03 21:33 UTC. Time now 2016-May-03 22:04 UTC.
Position N 48°35' W 122°48'.

Length 30 m.

MMSI: 367313160.

Date/timePositionNaut miles runAvg speedWind from/ knotsBaromVisibWave heightAir tempDewpointWater temp
2016-May-03 21:33N 48°35' W 122°48'1 1.3
2016-May-03 20:33N 48°36' W 122°49'6 4.8
2016-May-03 19:24N 48°31' W 122°50'5 5.7
2016-May-03 18:33N 48°36' W 122°49'2 2.4
2016-May-03 17:33N 48°33' W 122°49'3 2.9
2016-May-03 16:33N 48°36' W 122°49'1 1.5
2016-May-03 15:33N 48°35' W 122°47'8 8.1
2016-May-03 14:33N 48°31' W 122°36'0 0.1
2016-May-03 13:32N 48°31' W 122°36'0 0.0
2016-May-03 12:32N 48°31' W 122°36'0 0.0
2016-May-03 11:32N 48°31' W 122°36'0 0.0
2016-May-03 10:32N 48°31' W 122°36'0 0.0
2016-May-03 09:32N 48°31' W 122°36'0 0.0
2016-May-03 08:32N 48°31' W 122°36'0 0.0
2016-May-03 07:32N 48°31' W 122°36'0 0.0
2016-May-03 06:32N 48°31' W 122°36'0 0.0
2016-May-03 05:32N 48°31' W 122°36'0 0.0
2016-May-03 04:32N 48°31' W 122°36'0 0.0
2016-May-03 03:32N 48°31' W 122°36'0 0.0
2016-May-03 02:32N 48°31' W 122°36'0 0.0
2016-May-03 01:32N 48°31' W 122°36'0 0.0
2016-May-03 00:32N 48°31' W 122°36'0 0.0
2016-May-02 23:32N 48°31' W 122°36'0 0.0
2016-May-02 22:32N 48°31' W 122°36'0 0.0
2016-May-02 21:26N 48°31' W 122°36'0 0.0
2016-May-02 20:32N 48°31' W 122°36'0 0.0
2016-May-02 19:32N 48°31' W 122°36'0 0.0
2016-May-02 18:32N 48°31' W 122°36'0 0.0
2016-May-02 17:32N 48°31' W 122°36'0 0.0
2016-May-02 16:26N 48°31' W 122°36'0 0.0
2016-May-02 15:26N 48°31' W 122°36'0 0.0
2016-May-02 14:32N 48°31' W 122°36'0 0.0
2016-May-02 13:32N 48°31' W 122°36'0 0.0
2016-May-02 12:32N 48°31' W 122°36'0 0.0
2016-May-02 11:32N 48°31' W 122°36'0 0.0
2016-May-02 10:29N 48°31' W 122°36'0 0.0
2016-May-02 09:32N 48°31' W 122°36'0 0.0
2016-May-02 08:32N 48°31' W 122°36'0 0.0
2016-May-02 07:32N 48°31' W 122°36'0 0.0
2016-May-02 06:32N 48°31' W 122°36'0 0.0
2016-May-02 05:32N 48°31' W 122°36'0 0.0
2016-May-02 04:26N 48°31' W 122°36'0 0.0
2016-May-02 03:26N 48°31' W 122°36'0 0.0
2016-May-02 02:32N 48°31' W 122°36'0 0.0
2016-May-02 01:32N 48°31' W 122°36'0 0.0
2016-May-02 00:32N 48°31' W 122°36'0 0.0
2016-May-01 23:32N 48°31' W 122°36'0 0.0
2016-May-01 22:32N 48°31' W 122°36'0 0.0
2016-May-01 21:32N 48°31' W 122°36'0 0.0
2016-May-01 20:33N 48°31' W 122°36'0 0.0
2016-May-01 19:32N 48°31' W 122°36'0 0.0
2016-May-01 18:32N 48°31' W 122°36'0 0.0
2016-May-01 17:32N 48°31' W 122°36'0 0.0
2016-May-01 16:32N 48°31' W 122°36'0 0.0
2016-May-01 15:32N 48°31' W 122°36'0 0.0
2016-May-01 14:32N 48°31' W 122°36'0 0.0
2016-May-01 13:32N 48°31' W 122°36'0 0.0
2016-May-01 12:32N 48°31' W 122°36'0 0.0
2016-May-01 11:32N 48°31' W 122°36'0 0.0
2016-May-01 10:32N 48°31' W 122°36'0 0.0
2016-May-01 09:32N 48°31' W 122°36'0 0.0
2016-May-01 08:32N 48°31' W 122°36'0 0.0
2016-May-01 07:32N 48°31' W 122°36'0 0.0
2016-May-01 06:32N 48°31' W 122°36'0 0.0
2016-May-01 05:32N 48°31' W 122°36'0 0.0
2016-May-01 04:32N 48°31' W 122°36'0 0.0
2016-May-01 03:32N 48°31' W 122°36'0 0.0
2016-May-01 02:27N 48°31' W 122°36'0 0.0
2016-May-01 01:32N 48°31' W 122°36'0 0.0
2016-May-01 00:32N 48°31' W 122°36'0 0.0
2016-Apr-30 23:32N 48°31' W 122°36'0 0.0
2016-Apr-30 22:32N 48°31' W 122°36'0 0.0
2016-Apr-30 21:32N 48°31' W 122°36'0 0.0
2016-Apr-30 20:32N 48°31' W 122°36'0 0.0
2016-Apr-30 19:32N 48°31' W 122°36'0 0.0
2016-Apr-30 18:32N 48°31' W 122°36'0 0.0
2016-Apr-30 17:32N 48°31' W 122°36'0 0.0
2016-Apr-30 16:32N 48°31' W 122°36'0 0.0
2016-Apr-30 15:32N 48°31' W 122°36'0 0.0
2016-Apr-30 14:32N 48°31' W 122°36'0 0.0
2016-Apr-30 13:33N 48°31' W 122°36'0 0.0
2016-Apr-30 12:32N 48°31' W 122°36'0 0.0
2016-Apr-30 11:32N 48°31' W 122°36'0 0.0
2016-Apr-30 10:32N 48°31' W 122°36'0 0.0
2016-Apr-30 09:26N 48°31' W 122°36'0 0.0
2016-Apr-30 08:32N 48°31' W 122°36'0 0.0
2016-Apr-30 07:32N 48°31' W 122°36'0 0.0
2016-Apr-30 06:32N 48°31' W 122°36'0 0.0
2016-Apr-30 05:32N 48°31' W 122°36'0 0.0
2016-Apr-30 04:32N 48°31' W 122°36'0 0.0
2016-Apr-30 03:32N 48°31' W 122°36'0 0.0
2016-Apr-30 02:32N 48°31' W 122°36'0 0.0
2016-Apr-30 01:32N 48°31' W 122°36'0 0.0
2016-Apr-30 00:32N 48°31' W 122°36'0 0.0
2016-Apr-29 23:32N 48°31' W 122°36'1 0.7
2016-Apr-29 22:33N 48°31' W 122°37'7 6.4
2016-Apr-29 21:31N 48°25' W 122°40'4 4.4
2016-Apr-29 20:33N 48°25' W 122°34'1 1.1
2016-Apr-29 19:26N 48°25' W 122°36'5 5.7
2016-Apr-29 18:33N 48°28' W 122°42'5 4.8
2016-Apr-29 17:33N 48°31' W 122°37'0 0.0
2016-Apr-29 16:33N 48°31' W 122°37'0 0.4
2016-Apr-29 15:30N 48°31' W 122°36'0 0.0
2016-Apr-29 14:30N 48°31' W 122°36'0 0.0
2016-Apr-29 13:30N 48°31' W 122°36'0 0.0
2016-Apr-29 12:30N 48°31' W 122°36'0 0.0
2016-Apr-29 11:30N 48°31' W 122°36'0 0.0
2016-Apr-29 10:30N 48°31' W 122°36'0 0.0
2016-Apr-29 09:30N 48°31' W 122°36'0 0.0
2016-Apr-29 08:30N 48°31' W 122°36'0 0.0
2016-Apr-29 07:30N 48°31' W 122°36'0 0.0
2016-Apr-29 06:30N 48°31' W 122°36'0 0.0
2016-Apr-29 05:30N 48°31' W 122°36'0 0.0
2016-Apr-29 04:30N 48°31' W 122°36'0 0.0
2016-Apr-29 03:30N 48°31' W 122°36'0 0.0
2016-Apr-29 02:30N 48°31' W 122°36'0 0.0
2016-Apr-29 01:30N 48°31' W 122°36'0 0.0
2016-Apr-29 00:30N 48°31' W 122°36'0 0.0
2016-Apr-28 23:30N 48°31' W 122°36'0 0.0
2016-Apr-28 22:30N 48°31' W 122°36'1 0.7
2016-Apr-28 21:33N 48°31' W 122°36'1 0.6
2016-Apr-28 20:33N 48°31' W 122°36'5 5.0
2016-Apr-28 19:34N 48°32' W 122°44'7 6.6
2016-Apr-28 18:34N 48°33' W 122°53'0 0.0
2016-Apr-28 17:34N 48°33' W 122°53'2 1.5
2016-Apr-28 16:34N 48°33' W 122°51'9 8.8
2016-Apr-28 15:33N 48°31' W 122°38'1 1.2
2016-Apr-28 14:30N 48°31' W 122°36'0 0.0
2016-Apr-28 13:30N 48°31' W 122°36'0 0.0
2016-Apr-28 12:30N 48°31' W 122°36'0 0.0
2016-Apr-28 11:30N 48°31' W 122°36'0 0.0
2016-Apr-28 10:30N 48°31' W 122°36'0 0.0
2016-Apr-28 09:18N 48°31' W 122°36'0 0.0
2016-Apr-28 08:30N 48°31' W 122°36'0 0.0
2016-Apr-28 07:30N 48°31' W 122°36'0 0.0
2016-Apr-28 06:30N 48°31' W 122°36'0 0.0
2016-Apr-28 05:30N 48°31' W 122°36'0 0.0
2016-Apr-28 04:30N 48°31' W 122°36'0 0.0
2016-Apr-28 03:30N 48°31' W 122°36'0 0.0
2016-Apr-28 02:30N 48°31' W 122°36'0 0.0
2016-Apr-28 01:30N 48°31' W 122°36'0 0.0
2016-Apr-28 00:24N 48°31' W 122°36'0 0.0
2016-Apr-27 23:30N 48°31' W 122°36'0 0.0
2016-Apr-27 22:18N 48°31' W 122°36'0 0.0
2016-Apr-27 21:30N 48°31' W 122°36'1 1.2
2016-Apr-27 20:33N 48°31' W 122°38'9 8.6
2016-Apr-27 19:33N 48°36' W 122°49'1 1.0
2016-Apr-27 18:33N 48°35' W 122°49'1 0.6
2016-Apr-27 17:33N 48°36' W 122°49'2 2.2
2016-Apr-27 16:33N 48°34' W 122°50'2 1.6
2016-Apr-27 15:33N 48°35' W 122°49'8 7.6
2016-Apr-27 14:33N 48°32' W 122°39'2 1.3
2016-Apr-27 13:17N 48°31' W 122°36'0 0.0
2016-Apr-27 12:29N 48°31' W 122°36'0 0.0
2016-Apr-27 11:29N 48°31' W 122°36'0 0.0
2016-Apr-27 10:29N 48°31' W 122°36'0 0.0
2016-Apr-27 09:29N 48°31' W 122°36'0 0.0
2016-Apr-27 08:29N 48°31' W 122°36'0 0.0
2016-Apr-27 07:29N 48°31' W 122°36'0 0.0
2016-Apr-27 06:29N 48°31' W 122°36'0 0.0
2016-Apr-27 05:29N 48°31' W 122°36'0 0.0
2016-Apr-27 04:29N 48°31' W 122°36'0 0.0
2016-Apr-27 03:29N 48°31' W 122°36'0 0.0
2016-Apr-27 02:29N 48°31' W 122°36'0 0.0
2016-Apr-27 01:29N 48°31' W 122°36'0 0.0
2016-Apr-27 00:23N 48°31' W 122°36'0 0.0
2016-Apr-26 23:29N 48°31' W 122°36'0 0.0
2016-Apr-26 22:29N 48°31' W 122°36'0 0.0
2016-Apr-26 21:29N 48°31' W 122°36'0 0.0
2016-Apr-26 20:29N 48°31' W 122°36'0 0.0
2016-Apr-26 19:29N 48°31' W 122°36'0 0.0
2016-Apr-26 18:29N 48°31' W 122°36'0 0.0
2016-Apr-26 17:29N 48°31' W 122°36'0 0.0
2016-Apr-26 16:29N 48°31' W 122°36'0 0.0
2016-Apr-26 15:29N 48°31' W 122°36'0 0.0
2016-Apr-26 14:29N 48°31' W 122°36'0 0.0
2016-Apr-26 13:29N 48°31' W 122°36'0 0.0
2016-Apr-26 12:29N 48°31' W 122°36'0 0.0
2016-Apr-26 11:29N 48°31' W 122°36'0 0.0
2016-Apr-26 10:29N 48°31' W 122°36'0 0.0
2016-Apr-26 09:29N 48°31' W 122°36'0 0.0
2016-Apr-26 08:29N 48°31' W 122°36'0 0.0
2016-Apr-26 07:29N 48°31' W 122°36'0 0.0
2016-Apr-26 06:29N 48°31' W 122°36'0 0.0
2016-Apr-26 05:29N 48°31' W 122°36'0 0.0
2016-Apr-26 04:29N 48°31' W 122°36'0 0.0
2016-Apr-26 03:29N 48°31' W 122°36'0 0.0
2016-Apr-26 02:29N 48°31' W 122°36'0 0.0
2016-Apr-26 01:29N 48°31' W 122°36'0 0.0
2016-Apr-26 00:29N 48°31' W 122°36'0 0.0
2016-Apr-25 23:29N 48°31' W 122°36'0 0.0
2016-Apr-25 22:29N 48°31' W 122°36'0 0.0
2016-Apr-25 21:29N 48°31' W 122°36'0 0.0
2016-Apr-25 20:29N 48°31' W 122°36'0 0.0
2016-Apr-25 19:29N 48°31' W 122°36'0 0.0
2016-Apr-25 18:29N 48°31' W 122°36'0 0.0
2016-Apr-25 17:29N 48°31' W 122°36'0 0.0
2016-Apr-25 16:29N 48°31' W 122°36'0 0.0
2016-Apr-25 15:29N 48°31' W 122°36'0 0.0
2016-Apr-25 14:29N 48°31' W 122°36'0 0.0
2016-Apr-25 13:29N 48°31' W 122°36'0 0.0
2016-Apr-25 12:23N 48°31' W 122°36'0 0.0
2016-Apr-25 11:29N 48°31' W 122°36'0 0.0
2016-Apr-25 10:29N 48°31' W 122°36'0 0.0
2016-Apr-25 09:29N 48°31' W 122°36'0 0.0
2016-Apr-25 08:29N 48°31' W 122°36'0 0.0
2016-Apr-25 07:29N 48°31' W 122°36'0 0.0
2016-Apr-25 06:29N 48°31' W 122°36'0 0.0
2016-Apr-25 05:29N 48°31' W 122°36'0 0.0
2016-Apr-25 04:29N 48°31' W 122°36'0 0.0
2016-Apr-25 03:29N 48°31' W 122°36'0 0.0
2016-Apr-25 02:17N 48°31' W 122°36'0 0.0
2016-Apr-25 01:29N 48°31' W 122°36'0 0.0
2016-Apr-25 00:29N 48°31' W 122°36'0 0.0
2016-Apr-24 23:29N 48°31' W 122°36'0 0.0
2016-Apr-24 22:29N 48°31' W 122°36'0 0.0
2016-Apr-24 21:29N 48°31' W 122°36'0 0.0
2016-Apr-24 20:29N 48°31' W 122°36'0 0.0
2016-Apr-24 19:29N 48°31' W 122°36'0 0.0
2016-Apr-24 18:29N 48°31' W 122°36'0 0.0
2016-Apr-24 17:23N 48°31' W 122°36'0 0.0
2016-Apr-24 16:29N 48°31' W 122°36'0 0.0
2016-Apr-24 15:29N 48°31' W 122°36'0 0.0
2016-Apr-24 14:29N 48°31' W 122°36'0 0.0
2016-Apr-24 13:29N 48°31' W 122°36'0 0.0
2016-Apr-24 12:29N 48°31' W 122°36'0 0.0
2016-Apr-24 11:29N 48°31' W 122°36'0 0.0
2016-Apr-24 10:29N 48°31' W 122°36'0 0.0
2016-Apr-24 09:29N 48°31' W 122°36'0 0.0
2016-Apr-24 08:29N 48°31' W 122°36'0 0.0
2016-Apr-24 07:29N 48°31' W 122°36'0 0.0
2016-Apr-24 06:29N 48°31' W 122°36'0 0.0
2016-Apr-24 05:29N 48°31' W 122°36'0 0.0
2016-Apr-24 04:29N 48°31' W 122°36'0 0.0
2016-Apr-24 03:29N 48°31' W 122°36'0 0.0
2016-Apr-24 02:29N 48°31' W 122°36'0 0.0
2016-Apr-24 01:29N 48°31' W 122°36'0 0.0
2016-Apr-24 00:29N 48°31' W 122°36'0 0.0
2016-Apr-23 23:29N 48°31' W 122°36'0 0.0
2016-Apr-23 22:29N 48°31' W 122°36'  
Track history (hours):
 
Tides and Currents Weather Stations Pressure Air Temp Water Temp Dewpoint Dewpoint Depression Visibility Wind Speed Wind Dir Waves Ship Positions

San Juan Enterprise

Owner: SAN JUAN MARINE FREIGHT CO LLC, ANACORTES, WA. More information available from US FCC via Universal Licensing System and Coast Guard Vessel Documentation Center.

Last reported at 2016-May-03 21:33 UTC. Time now 2016-May-03 22:04 UTC.
Position N 48°35' W 122°48'.

Length 30 m.

MMSI: 367313160.

Date/timePositionNaut miles runAvg speedWind from/ knotsBaromVisibWave heightAir tempDewpointWater temp
2016-May-03 21:33N 48°35' W 122°48'1 1.3
2016-May-03 20:33N 48°36' W 122°49'6 4.8
2016-May-03 19:24N 48°31' W 122°50'5 5.7
2016-May-03 18:33N 48°36' W 122°49'2 2.4
2016-May-03 17:33N 48°33' W 122°49'3 2.9
2016-May-03 16:33N 48°36' W 122°49'1 1.5
2016-May-03 15:33N 48°35' W 122°47'8 8.1
2016-May-03 14:33N 48°31' W 122°36'0 0.1
2016-May-03 13:32N 48°31' W 122°36'0 0.0
2016-May-03 12:32N 48°31' W 122°36'0 0.0
2016-May-03 11:32N 48°31' W 122°36'0 0.0
2016-May-03 10:32N 48°31' W 122°36'0 0.0
2016-May-03 09:32N 48°31' W 122°36'0 0.0
2016-May-03 08:32N 48°31' W 122°36'0 0.0
2016-May-03 07:32N 48°31' W 122°36'0 0.0
2016-May-03 06:32N 48°31' W 122°36'0 0.0
2016-May-03 05:32N 48°31' W 122°36'0 0.0
2016-May-03 04:32N 48°31' W 122°36'0 0.0
2016-May-03 03:32N 48°31' W 122°36'0 0.0
2016-May-03 02:32N 48°31' W 122°36'0 0.0
2016-May-03 01:32N 48°31' W 122°36'0 0.0
2016-May-03 00:32N 48°31' W 122°36'0 0.0
2016-May-02 23:32N 48°31' W 122°36'0 0.0
2016-May-02 22:32N 48°31' W 122°36'0 0.0
2016-May-02 21:26N 48°31' W 122°36'0 0.0
2016-May-02 20:32N 48°31' W 122°36'0 0.0
2016-May-02 19:32N 48°31' W 122°36'0 0.0
2016-May-02 18:32N 48°31' W 122°36'0 0.0
2016-May-02 17:32N 48°31' W 122°36'0 0.0
2016-May-02 16:26N 48°31' W 122°36'0 0.0
2016-May-02 15:26N 48°31' W 122°36'0 0.0
2016-May-02 14:32N 48°31' W 122°36'0 0.0
2016-May-02 13:32N 48°31' W 122°36'0 0.0
2016-May-02 12:32N 48°31' W 122°36'0 0.0
2016-May-02 11:32N 48°31' W 122°36'0 0.0
2016-May-02 10:29N 48°31' W 122°36'0 0.0
2016-May-02 09:32N 48°31' W 122°36'0 0.0
2016-May-02 08:32N 48°31' W 122°36'0 0.0
2016-May-02 07:32N 48°31' W 122°36'0 0.0
2016-May-02 06:32N 48°31' W 122°36'0 0.0
2016-May-02 05:32N 48°31' W 122°36'0 0.0
2016-May-02 04:26N 48°31' W 122°36'0 0.0
2016-May-02 03:26N 48°31' W 122°36'0 0.0
2016-May-02 02:32N 48°31' W 122°36'0 0.0
2016-May-02 01:32N 48°31' W 122°36'0 0.0
2016-May-02 00:32N 48°31' W 122°36'0 0.0
2016-May-01 23:32N 48°31' W 122°36'0 0.0
2016-May-01 22:32N 48°31' W 122°36'0 0.0
2016-May-01 21:32N 48°31' W 122°36'0 0.0
2016-May-01 20:33N 48°31' W 122°36'0 0.0
2016-May-01 19:32N 48°31' W 122°36'0 0.0
2016-May-01 18:32N 48°31' W 122°36'0 0.0
2016-May-01 17:32N 48°31' W 122°36'0 0.0
2016-May-01 16:32N 48°31' W 122°36'0 0.0
2016-May-01 15:32N 48°31' W 122°36'0 0.0
2016-May-01 14:32N 48°31' W 122°36'0 0.0
2016-May-01 13:32N 48°31' W 122°36'0 0.0
2016-May-01 12:32N 48°31' W 122°36'0 0.0
2016-May-01 11:32N 48°31' W 122°36'0 0.0
2016-May-01 10:32N 48°31' W 122°36'0 0.0
2016-May-01 09:32N 48°31' W 122°36'0 0.0
2016-May-01 08:32N 48°31' W 122°36'0 0.0
2016-May-01 07:32N 48°31' W 122°36'0 0.0
2016-May-01 06:32N 48°31' W 122°36'0 0.0
2016-May-01 05:32N 48°31' W 122°36'0 0.0
2016-May-01 04:32N 48°31' W 122°36'0 0.0
2016-May-01 03:32N 48°31' W 122°36'0 0.0
2016-May-01 02:27N 48°31' W 122°36'0 0.0
2016-May-01 01:32N 48°31' W 122°36'0 0.0
2016-May-01 00:32N 48°31' W 122°36'0 0.0
2016-Apr-30 23:32N 48°31' W 122°36'0 0.0
2016-Apr-30 22:32N 48°31' W 122°36'0 0.0
2016-Apr-30 21:32N 48°31' W 122°36'0 0.0
2016-Apr-30 20:32N 48°31' W 122°36'0 0.0
2016-Apr-30 19:32N 48°31' W 122°36'0 0.0
2016-Apr-30 18:32N 48°31' W 122°36'0 0.0
2016-Apr-30 17:32N 48°31' W 122°36'0 0.0
2016-Apr-30 16:32N 48°31' W 122°36'0 0.0
2016-Apr-30 15:32N 48°31' W 122°36'0 0.0
2016-Apr-30 14:32N 48°31' W 122°36'0 0.0
2016-Apr-30 13:33N 48°31' W 122°36'0 0.0
2016-Apr-30 12:32N 48°31' W 122°36'0 0.0
2016-Apr-30 11:32N 48°31' W 122°36'0 0.0
2016-Apr-30 10:32N 48°31' W 122°36'0 0.0
2016-Apr-30 09:26N 48°31' W 122°36'0 0.0
2016-Apr-30 08:32N 48°31' W 122°36'0 0.0
2016-Apr-30 07:32N 48°31' W 122°36'0 0.0
2016-Apr-30 06:32N 48°31' W 122°36'0 0.0
2016-Apr-30 05:32N 48°31' W 122°36'0 0.0
2016-Apr-30 04:32N 48°31' W 122°36'0 0.0
2016-Apr-30 03:32N 48°31' W 122°36'0 0.0
2016-Apr-30 02:32N 48°31' W 122°36'0 0.0
2016-Apr-30 01:32N 48°31' W 122°36'0 0.0
2016-Apr-30 00:32N 48°31' W 122°36'0 0.0
2016-Apr-29 23:32N 48°31' W 122°36'1 0.7
2016-Apr-29 22:33N 48°31' W 122°37'7 6.4
2016-Apr-29 21:31N 48°25' W 122°40'4 4.4
2016-Apr-29 20:33N 48°25' W 122°34'1 1.1
2016-Apr-29 19:26N 48°25' W 122°36'5 5.7
2016-Apr-29 18:33N 48°28' W 122°42'5 4.8
2016-Apr-29 17:33N 48°31' W 122°37'0 0.0
2016-Apr-29 16:33N 48°31' W 122°37'0 0.4
2016-Apr-29 15:30N 48°31' W 122°36'0 0.0
2016-Apr-29 14:30N 48°31' W 122°36'0 0.0
2016-Apr-29 13:30N 48°31' W 122°36'0 0.0
2016-Apr-29 12:30N 48°31' W 122°36'0 0.0
2016-Apr-29 11:30N 48°31' W 122°36'0 0.0
2016-Apr-29 10:30N 48°31' W 122°36'0 0.0
2016-Apr-29 09:30N 48°31' W 122°36'0 0.0
2016-Apr-29 08:30N 48°31' W 122°36'0 0.0
2016-Apr-29 07:30N 48°31' W 122°36'0 0.0
2016-Apr-29 06:30N 48°31' W 122°36'0 0.0
2016-Apr-29 05:30N 48°31' W 122°36'0 0.0
2016-Apr-29 04:30N 48°31' W 122°36'0 0.0
2016-Apr-29 03:30N 48°31' W 122°36'0 0.0
2016-Apr-29 02:30N 48°31' W 122°36'0 0.0
2016-Apr-29 01:30N 48°31' W 122°36'0 0.0
2016-Apr-29 00:30N 48°31' W 122°36'0 0.0
2016-Apr-28 23:30N 48°31' W 122°36'0 0.0
2016-Apr-28 22:30N 48°31' W 122°36'1 0.7
2016-Apr-28 21:33N 48°31' W 122°36'1 0.6
2016-Apr-28 20:33N 48°31' W 122°36'5 5.0
2016-Apr-28 19:34N 48°32' W 122°44'7 6.6
2016-Apr-28 18:34N 48°33' W 122°53'0 0.0
2016-Apr-28 17:34N 48°33' W 122°53'2 1.5
2016-Apr-28 16:34N 48°33' W 122°51'9 8.8
2016-Apr-28 15:33N 48°31' W 122°38'1 1.2
2016-Apr-28 14:30N 48°31' W 122°36'0 0.0
2016-Apr-28 13:30N 48°31' W 122°36'0 0.0
2016-Apr-28 12:30N 48°31' W 122°36'0 0.0
2016-Apr-28 11:30N 48°31' W 122°36'0 0.0
2016-Apr-28 10:30N 48°31' W 122°36'0 0.0
2016-Apr-28 09:18N 48°31' W 122°36'0 0.0
2016-Apr-28 08:30N 48°31' W 122°36'0 0.0
2016-Apr-28 07:30N 48°31' W 122°36'0 0.0
2016-Apr-28 06:30N 48°31' W 122°36'0 0.0
2016-Apr-28 05:30N 48°31' W 122°36'0 0.0
2016-Apr-28 04:30N 48°31' W 122°36'0 0.0
2016-Apr-28 03:30N 48°31' W 122°36'0 0.0
2016-Apr-28 02:30N 48°31' W 122°36'0 0.0
2016-Apr-28 01:30N 48°31' W 122°36'0 0.0
2016-Apr-28 00:24N 48°31' W 122°36'0 0.0
2016-Apr-27 23:30N 48°31' W 122°36'0 0.0
2016-Apr-27 22:18N 48°31' W 122°36'0 0.0
2016-Apr-27 21:30N 48°31' W 122°36'1 1.2
2016-Apr-27 20:33N 48°31' W 122°38'9 8.6
2016-Apr-27 19:33N 48°36' W 122°49'1 1.0
2016-Apr-27 18:33N 48°35' W 122°49'1 0.6
2016-Apr-27 17:33N 48°36' W 122°49'2 2.2
2016-Apr-27 16:33N 48°34' W 122°50'2 1.6
2016-Apr-27 15:33N 48°35' W 122°49'8 7.6
2016-Apr-27 14:33N 48°32' W 122°39'2 1.3
2016-Apr-27 13:17N 48°31' W 122°36'0 0.0
2016-Apr-27 12:29N 48°31' W 122°36'0 0.0
2016-Apr-27 11:29N 48°31' W 122°36'0 0.0
2016-Apr-27 10:29N 48°31' W 122°36'0 0.0
2016-Apr-27 09:29N 48°31' W 122°36'0 0.0
2016-Apr-27 08:29N 48°31' W 122°36'0 0.0
2016-Apr-27 07:29N 48°31' W 122°36'0 0.0
2016-Apr-27 06:29N 48°31' W 122°36'0 0.0
2016-Apr-27 05:29N 48°31' W 122°36'0 0.0
2016-Apr-27 04:29N 48°31' W 122°36'0 0.0
2016-Apr-27 03:29N 48°31' W 122°36'0 0.0
2016-Apr-27 02:29N 48°31' W 122°36'0 0.0
2016-Apr-27 01:29N 48°31' W 122°36'0 0.0
2016-Apr-27 00:23N 48°31' W 122°36'0 0.0
2016-Apr-26 23:29N 48°31' W 122°36'0 0.0
2016-Apr-26 22:29N 48°31' W 122°36'0 0.0
2016-Apr-26 21:29N 48°31' W 122°36'0 0.0
2016-Apr-26 20:29N 48°31' W 122°36'0 0.0
2016-Apr-26 19:29N 48°31' W 122°36'0 0.0
2016-Apr-26 18:29N 48°31' W 122°36'0 0.0
2016-Apr-26 17:29N 48°31' W 122°36'0 0.0
2016-Apr-26 16:29N 48°31' W 122°36'0 0.0
2016-Apr-26 15:29N 48°31' W 122°36'0 0.0
2016-Apr-26 14:29N 48°31' W 122°36'0 0.0
2016-Apr-26 13:29N 48°31' W 122°36'0 0.0
2016-Apr-26 12:29N 48°31' W 122°36'0 0.0
2016-Apr-26 11:29N 48°31' W 122°36'0 0.0
2016-Apr-26 10:29N 48°31' W 122°36'0 0.0
2016-Apr-26 09:29N 48°31' W 122°36'0 0.0
2016-Apr-26 08:29N 48°31' W 122°36'0 0.0
2016-Apr-26 07:29N 48°31' W 122°36'0 0.0
2016-Apr-26 06:29N 48°31' W 122°36'0 0.0
2016-Apr-26 05:29N 48°31' W 122°36'0 0.0
2016-Apr-26 04:29N 48°31' W 122°36'0 0.0
2016-Apr-26 03:29N 48°31' W 122°36'0 0.0
2016-Apr-26 02:29N 48°31' W 122°36'0 0.0
2016-Apr-26 01:29N 48°31' W 122°36'0 0.0
2016-Apr-26 00:29N 48°31' W 122°36'0 0.0
2016-Apr-25 23:29N 48°31' W 122°36'0 0.0
2016-Apr-25 22:29N 48°31' W 122°36'0 0.0
2016-Apr-25 21:29N 48°31' W 122°36'0 0.0
2016-Apr-25 20:29N 48°31' W 122°36'0 0.0
2016-Apr-25 19:29N 48°31' W 122°36'0 0.0
2016-Apr-25 18:29N 48°31' W 122°36'0 0.0
2016-Apr-25 17:29N 48°31' W 122°36'0 0.0
2016-Apr-25 16:29N 48°31' W 122°36'0 0.0
2016-Apr-25 15:29N 48°31' W 122°36'0 0.0
2016-Apr-25 14:29N 48°31' W 122°36'0 0.0
2016-Apr-25 13:29N 48°31' W 122°36'0 0.0
2016-Apr-25 12:23N 48°31' W 122°36'0 0.0
2016-Apr-25 11:29N 48°31' W 122°36'0 0.0
2016-Apr-25 10:29N 48°31' W 122°36'0 0.0
2016-Apr-25 09:29N 48°31' W 122°36'0 0.0
2016-Apr-25 08:29N 48°31' W 122°36'0 0.0
2016-Apr-25 07:29N 48°31' W 122°36'0 0.0
2016-Apr-25 06:29N 48°31' W 122°36'0 0.0
2016-Apr-25 05:29N 48°31' W 122°36'0 0.0
2016-Apr-25 04:29N 48°31' W 122°36'0 0.0
2016-Apr-25 03:29N 48°31' W 122°36'0 0.0
2016-Apr-25 02:17N 48°31' W 122°36'0 0.0
2016-Apr-25 01:29N 48°31' W 122°36'0 0.0
2016-Apr-25 00:29N 48°31' W 122°36'0 0.0
2016-Apr-24 23:29N 48°31' W 122°36'0 0.0
2016-Apr-24 22:29N 48°31' W 122°36'0 0.0
2016-Apr-24 21:29N 48°31' W 122°36'0 0.0
2016-Apr-24 20:29N 48°31' W 122°36'0 0.0
2016-Apr-24 19:29N 48°31' W 122°36'0 0.0
2016-Apr-24 18:29N 48°31' W 122°36'0 0.0
2016-Apr-24 17:23N 48°31' W 122°36'0 0.0
2016-Apr-24 16:29N 48°31' W 122°36'0 0.0
2016-Apr-24 15:29N 48°31' W 122°36'0 0.0
2016-Apr-24 14:29N 48°31' W 122°36'0 0.0
2016-Apr-24 13:29N 48°31' W 122°36'0 0.0
2016-Apr-24 12:29N 48°31' W 122°36'0 0.0
2016-Apr-24 11:29N 48°31' W 122°36'0 0.0
2016-Apr-24 10:29N 48°31' W 122°36'0 0.0
2016-Apr-24 09:29N 48°31' W 122°36'0 0.0
2016-Apr-24 08:29N 48°31' W 122°36'0 0.0
2016-Apr-24 07:29N 48°31' W 122°36'0 0.0
2016-Apr-24 06:29N 48°31' W 122°36'0 0.0
2016-Apr-24 05:29N 48°31' W 122°36'0 0.0
2016-Apr-24 04:29N 48°31' W 122°36'0 0.0
2016-Apr-24 03:29N 48°31' W 122°36'0 0.0
2016-Apr-24 02:29N 48°31' W 122°36'0 0.0
2016-Apr-24 01:29N 48°31' W 122°36'0 0.0
2016-Apr-24 00:29N 48°31' W 122°36'0 0.0
2016-Apr-23 23:29N 48°31' W 122°36'0 0.0
2016-Apr-23 22:29N 48°31' W 122°36'  

Dump ship's entire track history